createdAt,value
2022-10-13T00:01:55.563Z,22.00
2022-10-13T00:06:59.180Z,20.75
2022-10-13T00:12:02.942Z,21.80
2022-10-13T00:17:06.681Z,23.07
2022-10-13T00:22:10.339Z,22.27
2022-10-13T00:27:13.951Z,22.92
2022-10-13T00:32:17.788Z,23.98
2022-10-13T00:37:23.405Z,23.35
2022-10-13T00:42:28.070Z,23.13
2022-10-13T00:47:56.745Z,23.27
2022-10-13T00:53:03.259Z,23.45
2022-10-13T00:58:11.393Z,22.75
2022-10-13T01:03:15.269Z,23.55
2022-10-13T01:08:20.736Z,24.27
2022-10-13T01:13:41.982Z,23.45
2022-10-13T01:19:00.669Z,24.15
2022-10-13T01:24:44.382Z,25.38
2022-10-13T01:30:07.521Z,25.05
2022-10-13T01:35:23.192Z,24.52
2022-10-13T01:40:33.159Z,24.70
2022-10-13T01:45:41.417Z,24.70
2022-10-13T01:50:47.749Z,25.17
2022-10-13T01:55:57.979Z,26.00
2022-10-13T02:01:18.781Z,26.13
2022-10-13T02:06:28.900Z,25.42
2022-10-13T02:11:34.443Z,25.25
2022-10-13T02:16:44.596Z,26.92
2022-10-13T02:21:52.804Z,23.92
2022-10-13T02:26:57.617Z,24.38
2022-10-13T02:32:01.944Z,24.13
2022-10-13T02:37:05.594Z,25.07
2022-10-13T02:42:09.410Z,25.85
2022-10-13T02:47:12.972Z,25.65
2022-10-13T02:52:16.589Z,24.65
2022-10-13T02:57:20.456Z,26.98
2022-10-13T03:02:24.404Z,26.42
2022-10-13T03:07:28.203Z,26.67
2022-10-13T03:12:32.379Z,27.05
2022-10-13T03:17:36.901Z,26.50
2022-10-13T03:22:43.947Z,26.13
2022-10-13T03:27:51.078Z,25.88
2022-10-13T03:32:54.997Z,26.42
2022-10-13T03:37:58.721Z,25.60
2022-10-13T03:43:02.352Z,26.85
2022-10-13T03:48:07.731Z,25.42
2022-10-13T03:53:14.309Z,24.33
2022-10-13T03:58:18.453Z,25.33
2022-10-13T04:03:34.456Z,25.55
2022-10-13T04:08:40.570Z,26.27
2022-10-13T04:13:45.256Z,24.75
2022-10-13T04:19:02.088Z,25.77
2022-10-13T04:24:06.805Z,25.60
2022-10-13T04:29:12.020Z,25.02
2022-10-13T04:34:16.125Z,25.70
2022-10-13T04:39:22.063Z,26.95
2022-10-13T04:44:25.895Z,27.23
2022-10-13T04:49:29.456Z,27.65
2022-10-13T04:54:32.918Z,27.05
2022-10-13T04:59:36.410Z,26.77
2022-10-13T05:04:40.133Z,26.60
2022-10-13T05:09:43.899Z,27.42
2022-10-13T05:14:47.299Z,26.92
2022-10-13T05:19:51.244Z,26.52
2022-10-13T05:24:54.924Z,27.30
2022-10-13T05:29:58.566Z,27.90
2022-10-13T05:35:02.045Z,29.58
2022-10-13T05:40:06.485Z,27.95
2022-10-13T05:45:11.923Z,29.45
2022-10-13T05:50:16.029Z,27.75
2022-10-13T05:55:20.886Z,28.17
2022-10-13T06:00:24.770Z,26.70
2022-10-13T06:05:28.913Z,27.33
2022-10-13T06:10:32.876Z,26.88
2022-10-13T06:15:36.561Z,28.03
2022-10-13T06:20:40.011Z,27.10
2022-10-13T06:25:50.825Z,27.00
2022-10-13T06:30:55.502Z,27.70
2022-10-13T06:41:06.588Z,26.77
2022-10-13T06:46:11.636Z,27.83
2022-10-13T06:51:15.649Z,26.45
2022-10-13T06:56:20.118Z,26.88
2022-10-13T07:01:24.141Z,27.88
2022-10-13T07:06:27.991Z,27.43
2022-10-13T07:11:32.499Z,27.13
2022-10-13T07:16:36.184Z,28.07
2022-10-13T07:21:39.900Z,27.50
2022-10-13T07:26:43.275Z,26.25
2022-10-13T07:31:47.612Z,28.05
2022-10-13T07:36:51.143Z,26.75
2022-10-13T07:41:54.838Z,27.65
2022-10-13T07:46:58.445Z,26.92
2022-10-13T07:52:02.608Z,26.38
2022-10-13T07:57:06.042Z,27.13
2022-10-13T08:02:10.927Z,25.98
2022-10-13T08:07:14.725Z,26.05
2022-10-13T08:12:18.662Z,26.17
2022-10-13T08:17:22.742Z,25.08
2022-10-13T08:22:28.634Z,24.30
2022-10-13T08:27:49.621Z,25.20
2022-10-13T08:32:54.435Z,24.83
2022-10-13T08:37:57.959Z,23.15
2022-10-13T08:43:01.687Z,24.23
2022-10-13T08:48:18.654Z,23.75
2022-10-13T08:53:32.181Z,22.60
2022-10-13T08:58:37.870Z,22.25
2022-10-13T09:04:09.175Z,23.33
2022-10-13T09:09:15.263Z,22.00
2022-10-13T09:14:23.057Z,21.85
2022-10-13T09:19:34.766Z,21.50
2022-10-13T09:24:38.227Z,21.48
2022-10-13T09:29:42.515Z,20.50
2022-10-13T09:34:46.802Z,20.83
2022-10-13T09:40:12.262Z,21.75
2022-10-13T09:45:20.171Z,20.58
2022-10-13T09:50:28.988Z,21.10
2022-10-13T09:55:35.673Z,20.25
2022-10-13T10:00:40.607Z,19.90
2022-10-13T10:05:56.698Z,20.92
2022-10-13T10:11:10.578Z,20.63
2022-10-13T10:16:32.281Z,23.02
2022-10-13T10:21:52.028Z,22.15
2022-10-13T10:27:02.629Z,20.63
2022-10-13T10:32:06.532Z,21.15
2022-10-13T10:37:38.177Z,21.00
2022-10-13T10:43:03.329Z,19.45
2022-10-13T10:48:22.281Z,19.08
2022-10-13T10:53:33.937Z,19.00
2022-10-13T10:59:01.712Z,19.02
2022-10-13T11:04:36.960Z,19.83
2022-10-13T11:09:43.815Z,18.80
2022-10-13T11:14:48.395Z,19.98
2022-10-13T11:19:52.319Z,20.05
2022-10-13T11:25:01.937Z,19.23
2022-10-13T11:30:26.812Z,18.80
2022-10-13T11:35:32.056Z,19.70
2022-10-13T11:40:38.589Z,17.88
2022-10-13T11:45:50.927Z,17.77
2022-10-13T11:51:33.620Z,17.27
2022-10-13T11:56:49.191Z,16.25
2022-10-13T12:02:12.218Z,17.23
2022-10-13T12:07:18.012Z,16.42
2022-10-13T12:12:23.516Z,17.48
2022-10-13T12:17:27.640Z,18.13
2022-10-13T12:22:31.599Z,17.00
2022-10-13T12:27:48.028Z,17.10
2022-10-13T12:32:57.796Z,17.52
2022-10-13T12:38:04.410Z,16.70
2022-10-13T12:43:08.418Z,16.48
2022-10-13T12:48:32.960Z,16.23
2022-10-13T12:53:40.087Z,17.80
2022-10-13T12:58:44.521Z,17.48
2022-10-13T13:03:55.926Z,18.52
2022-10-13T13:09:23.069Z,18.30
2022-10-13T13:14:51.854Z,18.48
2022-10-13T13:19:56.564Z,18.90
2022-10-13T13:25:01.118Z,18.02
2022-10-13T13:30:05.262Z,18.73
2022-10-13T13:40:18.297Z,17.53
2022-10-13T13:45:23.872Z,17.98
2022-10-13T13:50:33.037Z,18.92
2022-10-13T13:55:36.669Z,19.73
2022-10-13T14:00:40.107Z,19.02
2022-10-13T14:05:43.535Z,20.00
2022-10-13T14:10:47.066Z,19.20
2022-10-13T14:16:02.185Z,18.65
2022-10-13T14:21:08.022Z,18.85
2022-10-13T14:26:11.539Z,19.45
2022-10-13T14:31:15.050Z,21.33
2022-10-13T14:36:18.461Z,20.43
2022-10-13T14:46:26.266Z,18.85
2022-10-13T14:51:29.742Z,19.92
2022-10-13T14:56:34.104Z,21.57
2022-10-13T15:06:55.594Z,20.80
2022-10-13T15:11:59.209Z,21.60
2022-10-13T15:17:04.123Z,22.48
2022-10-13T15:22:07.570Z,23.30
2022-10-13T15:27:11.002Z,22.60
2022-10-13T15:32:19.104Z,22.97
2022-10-13T15:37:22.770Z,23.00
2022-10-13T15:42:26.308Z,23.60
2022-10-13T15:47:29.812Z,23.17
2022-10-13T15:52:35.189Z,22.53
2022-10-13T15:57:39.889Z,23.00
2022-10-13T16:02:45.497Z,21.90
2022-10-13T16:07:49.120Z,21.87
2022-10-13T16:12:52.781Z,22.57
2022-10-13T16:17:56.182Z,22.80
2022-10-13T16:22:59.674Z,22.97
2022-10-13T16:28:03.440Z,23.50
2022-10-13T16:33:07.093Z,24.03
2022-10-13T16:38:12.173Z,24.67
2022-10-13T16:43:17.370Z,25.23
2022-10-13T16:48:21.039Z,26.20
2022-10-13T16:53:24.734Z,27.48
2022-10-13T16:58:28.351Z,25.57
2022-10-13T17:03:31.762Z,24.90
2022-10-13T17:08:35.907Z,31.05
2022-10-13T17:13:39.937Z,27.90
2022-10-13T17:18:43.606Z,50.13
2022-10-13T17:23:48.873Z,40.13
2022-10-13T17:28:52.857Z,26.05
2022-10-13T17:33:56.504Z,25.58
2022-10-13T17:39:06.337Z,34.97
2022-10-13T17:44:11.527Z,25.25
2022-10-13T17:49:18.107Z,29.10
2022-10-13T17:54:22.268Z,24.08
2022-10-13T17:59:26.061Z,25.00
2022-10-13T18:04:31.224Z,29.27
2022-10-13T18:09:34.689Z,29.08
2022-10-13T18:14:38.424Z,26.25
2022-10-13T18:19:42.305Z,25.95
2022-10-13T18:24:47.560Z,29.00
2022-10-13T18:29:51.541Z,28.65
2022-10-13T18:34:57.222Z,29.35
2022-10-13T18:40:01.013Z,29.00
2022-10-13T18:45:04.956Z,28.60
2022-10-13T18:50:08.875Z,29.63
2022-10-13T18:55:12.393Z,30.20
2022-10-13T19:00:16.661Z,30.70
2022-10-13T19:05:20.891Z,30.73
2022-10-13T19:10:24.345Z,30.52
2022-10-13T19:15:27.902Z,31.00
2022-10-13T19:20:31.354Z,28.77
2022-10-13T19:25:34.901Z,28.13
2022-10-13T19:30:39.939Z,31.20
2022-10-13T19:35:46.599Z,32.30
2022-10-13T19:40:50.588Z,31.27
2022-10-13T19:45:58.875Z,31.27
2022-10-13T19:51:07.502Z,28.92
2022-10-13T19:56:24.219Z,31.27
2022-10-13T20:01:28.800Z,30.60
2022-10-13T20:06:32.285Z,29.55
2022-10-13T20:11:36.657Z,30.38
2022-10-13T20:16:40.506Z,33.28
2022-10-13T20:21:44.274Z,30.77
2022-10-13T20:26:48.880Z,31.05
2022-10-13T20:31:56.087Z,31.15
2022-10-13T20:36:59.741Z,34.37
2022-10-13T20:42:04.194Z,29.70
2022-10-13T20:47:07.939Z,31.23
2022-10-13T20:52:11.439Z,28.88
2022-10-13T20:57:14.981Z,29.80
2022-10-13T21:02:18.503Z,30.10
2022-10-13T21:07:22.425Z,31.88
2022-10-13T21:12:26.983Z,30.23
2022-10-13T21:17:32.798Z,32.53
2022-10-13T21:22:44.085Z,30.10
2022-10-13T21:27:48.075Z,29.75
2022-10-13T21:32:52.438Z,31.27
2022-10-13T21:38:16.172Z,29.88
2022-10-13T21:43:23.358Z,29.45
2022-10-13T21:48:33.881Z,29.13
2022-10-13T21:53:43.268Z,30.27
2022-10-13T21:58:57.501Z,31.10
2022-10-13T22:04:03.322Z,30.80
2022-10-13T22:09:07.561Z,31.23
2022-10-13T22:14:11.289Z,30.40
2022-10-13T22:19:16.168Z,31.48
2022-10-13T22:24:21.688Z,32.00
2022-10-13T22:29:26.114Z,32.28
2022-10-13T22:34:29.878Z,32.10
2022-10-13T22:39:33.346Z,32.50
2022-10-13T22:44:36.782Z,31.73
2022-10-13T22:49:40.268Z,33.40
2022-10-13T22:54:43.726Z,32.05
2022-10-13T22:59:47.407Z,35.30
2022-10-13T23:04:51.113Z,36.97
2022-10-13T23:09:54.564Z,34.92
2022-10-13T23:14:58.121Z,35.88
2022-10-13T23:20:11.603Z,33.30
2022-10-13T23:25:15.287Z,33.20
2022-10-13T23:30:20.175Z,42.13
2022-10-13T23:35:23.679Z,39.38
2022-10-13T23:40:27.494Z,31.70
2022-10-13T23:45:33.651Z,33.72
2022-10-13T23:50:37.554Z,34.83
2022-10-13T23:55:42.679Z,36.63
